createdAt,value
2023-03-17T00:39:18.404Z,92853.00
2023-03-17T00:49:18.340Z,92853.00
2023-03-17T01:07:18.407Z,92834.00
2023-03-17T01:08:18.413Z,92832.00
2023-03-17T01:09:18.497Z,92826.00
2023-03-17T01:10:18.460Z,92830.00
2023-03-17T01:11:18.418Z,92834.00
2023-03-17T01:12:18.438Z,92836.00
2023-03-17T01:13:18.414Z,92830.00
2023-03-17T01:14:18.406Z,92832.00
2023-03-17T01:15:18.415Z,92832.00
2023-03-17T01:16:18.487Z,92832.00
2023-03-17T01:17:18.425Z,92840.00
2023-03-17T01:18:18.466Z,92826.00
2023-03-17T01:19:18.421Z,92828.00
2023-03-17T01:20:18.428Z,92830.00
2023-03-17T01:21:18.429Z,92832.00
2023-03-17T01:22:18.424Z,92836.00
2023-03-17T01:23:18.455Z,92832.00
2023-03-17T01:24:18.454Z,92832.00
2023-03-17T01:25:18.474Z,92832.00
2023-03-17T01:26:18.474Z,92832.00
2023-03-17T01:27:18.484Z,92830.00
2023-03-17T01:28:18.522Z,92830.00
2023-03-17T01:29:18.540Z,92828.00
2023-03-17T01:30:18.472Z,92826.00
2023-03-17T01:31:18.522Z,92824.00
2023-03-17T01:32:18.489Z,92822.00
2023-03-17T01:33:18.494Z,92820.00
2023-03-17T01:34:18.511Z,92816.00
2023-03-17T01:35:18.562Z,92814.00
2023-03-17T01:36:18.504Z,92812.00
2023-03-17T01:37:18.506Z,92814.00
2023-03-17T01:38:18.513Z,92802.00
2023-03-17T01:39:18.523Z,92804.00
2023-03-17T01:40:18.547Z,92802.00
2023-03-17T01:41:18.560Z,92806.00
2023-03-17T01:42:18.561Z,92810.00
2023-03-17T01:43:18.571Z,92810.00
2023-03-17T01:44:18.599Z,92810.00
2023-03-17T01:45:18.609Z,92802.00
2023-03-17T01:46:18.595Z,92795.00
2023-03-17T01:47:18.611Z,92791.00
2023-03-17T01:48:18.623Z,92799.00
2023-03-17T01:49:18.634Z,92804.00
2023-03-17T01:50:18.648Z,92797.00
2023-03-17T01:51:18.660Z,92799.00
2023-03-17T01:52:18.665Z,92802.00
2023-03-17T01:53:18.680Z,92801.00
2023-03-17T01:54:18.681Z,92802.00
2023-03-17T01:55:18.706Z,92804.00
2023-03-17T01:56:18.713Z,92791.00
2023-03-17T01:57:18.723Z,92797.00
2023-03-17T01:58:18.735Z,92799.00
2023-03-17T01:59:18.737Z,92799.00
2023-03-17T02:00:18.748Z,92791.00
2023-03-17T02:01:18.827Z,92793.00
2023-03-17T02:02:18.775Z,92789.00
2023-03-17T02:03:18.800Z,92789.00
2023-03-17T02:04:18.877Z,92785.00
2023-03-17T02:05:18.817Z,92787.00
2023-03-17T02:06:18.820Z,92791.00
2023-03-17T02:07:18.834Z,92791.00
2023-03-17T02:08:18.836Z,92787.00
2023-03-17T02:09:18.846Z,92795.00
2023-03-17T02:10:18.863Z,92791.00
2023-03-17T02:11:18.872Z,92797.00
2023-03-17T02:12:19.092Z,92793.00
2023-03-17T02:13:18.882Z,92797.00
2023-03-17T02:14:18.896Z,92791.00
2023-03-17T02:15:18.907Z,92779.00
2023-03-17T02:16:18.963Z,92783.00
2023-03-17T02:17:18.939Z,92783.00
2023-03-17T02:18:19.599Z,92779.00
2023-03-17T02:19:18.977Z,92779.00
2023-03-17T02:20:19.011Z,92783.00
2023-03-17T02:21:18.990Z,92787.00
2023-03-17T02:22:19.082Z,92785.00
2023-03-17T02:23:19.003Z,92785.00
2023-03-17T02:24:19.090Z,92791.00
2023-03-17T02:25:19.033Z,92787.00
2023-03-17T02:26:19.089Z,92785.00
2023-03-17T02:27:19.068Z,92785.00
2023-03-17T02:28:19.079Z,92779.00
2023-03-17T02:29:19.092Z,92779.00
2023-03-17T02:30:19.093Z,92783.00
2023-03-17T02:31:19.153Z,92783.00
2023-03-17T02:32:19.138Z,92779.00
2023-03-17T02:33:19.148Z,92775.00
2023-03-17T02:34:19.162Z,92783.00
2023-03-17T02:35:19.187Z,92783.00
2023-03-17T02:36:19.230Z,92785.00
2023-03-17T02:37:19.227Z,92795.00
2023-03-17T02:38:19.228Z,92793.00
2023-03-17T02:39:19.306Z,92789.00
2023-03-17T02:40:19.243Z,92797.00
2023-03-17T02:41:19.279Z,92802.00
2023-03-17T02:42:19.256Z,92797.00
2023-03-17T02:43:19.281Z,92795.00
2023-03-17T02:44:19.297Z,92785.00
2023-03-17T02:45:19.294Z,92789.00
2023-03-17T02:46:19.340Z,92793.00
2023-03-17T02:47:19.515Z,92791.00
2023-03-17T02:48:19.321Z,92791.00
2023-03-17T02:49:19.354Z,92791.00
2023-03-17T02:50:19.343Z,92789.00
2023-03-17T02:51:19.359Z,92791.00
2023-03-17T02:52:20.104Z,92791.00
2023-03-17T02:53:19.364Z,92791.00
2023-03-17T02:54:19.367Z,92791.00
2023-03-17T02:55:19.374Z,92789.00
2023-03-17T02:56:19.380Z,92795.00
2023-03-17T02:57:19.370Z,92795.00
2023-03-17T02:58:19.381Z,92787.00
2023-03-17T02:59:20.105Z,92791.00
2023-03-17T03:00:19.399Z,92795.00
2023-03-17T03:01:19.417Z,92785.00
2023-03-17T03:02:19.438Z,92787.00
2023-03-17T03:03:19.417Z,92785.00
2023-03-17T03:04:19.429Z,92783.00
2023-03-17T03:05:19.419Z,92783.00
2023-03-17T03:06:19.436Z,92783.00
2023-03-17T03:07:19.432Z,92785.00
2023-03-17T03:08:19.454Z,92779.00
2023-03-17T03:09:19.452Z,92775.00
2023-03-17T03:10:19.454Z,92777.00
2023-03-17T03:11:19.459Z,92789.00
2023-03-17T03:12:19.461Z,92781.00
2023-03-17T03:13:19.459Z,92777.00
2023-03-17T03:14:19.478Z,92775.00
2023-03-17T03:15:19.540Z,92781.00
2023-03-17T03:16:19.695Z,92779.00
2023-03-17T03:17:19.490Z,92783.00
2023-03-17T03:18:19.490Z,92779.00
2023-03-17T03:19:19.516Z,92773.00
2023-03-17T03:20:19.502Z,92781.00
2023-03-17T03:21:19.498Z,92787.00
2023-03-17T03:22:19.486Z,92787.00
2023-03-17T03:23:19.494Z,92775.00
2023-03-17T03:24:19.493Z,92781.00
2023-03-17T03:25:19.506Z,92787.00
2023-03-17T03:26:20.125Z,92785.00
2023-03-17T03:27:20.116Z,92777.00
2023-03-17T03:28:19.503Z,92783.00
2023-03-17T03:29:19.522Z,92779.00
2023-03-17T03:30:19.613Z,92783.00
2023-03-17T03:31:19.528Z,92789.00
2023-03-17T03:32:19.517Z,92789.00
2023-03-17T03:33:19.530Z,92789.00
2023-03-17T03:34:19.530Z,92787.00
2023-03-17T03:35:19.535Z,92789.00
2023-03-17T03:36:19.537Z,92797.00
2023-03-17T03:37:19.551Z,92797.00
2023-03-17T03:38:19.553Z,92802.00
2023-03-17T03:39:19.576Z,92797.00
2023-03-17T03:40:19.572Z,92808.00
2023-03-17T03:41:19.618Z,92804.00
2023-03-17T03:42:19.570Z,92806.00
2023-03-17T03:43:23.336Z,92806.00
2023-03-17T03:44:19.556Z,92808.00
2023-03-17T03:45:19.561Z,92801.00
2023-03-17T03:46:19.535Z,92801.00
2023-03-17T03:47:19.503Z,92801.00
2023-03-17T03:48:19.496Z,92801.00
2023-03-17T03:49:19.477Z,92799.00
2023-03-17T03:50:19.458Z,92806.00
2023-03-17T03:51:19.436Z,92804.00
2023-03-17T03:52:19.422Z,92801.00
2023-03-17T03:53:19.405Z,92802.00
2023-03-17T03:54:19.395Z,92806.00
2023-03-17T03:55:19.384Z,92799.00
2023-03-17T03:56:19.358Z,92801.00
2023-03-17T03:57:19.348Z,92804.00
2023-03-17T03:58:19.339Z,92797.00
2023-03-17T03:59:19.317Z,92791.00
2023-03-17T04:01:19.332Z,92781.00
2023-03-17T04:55:19.060Z,92767.00
2023-03-17T04:59:19.211Z,92785.00
2023-03-17T05:04:30.854Z,92787.00
2023-03-17T05:07:19.084Z,92789.00
2023-03-17T05:14:18.968Z,92795.00
2023-03-17T05:15:18.960Z,92791.00
2023-03-17T05:16:18.966Z,92787.00
2023-03-17T05:17:18.917Z,92787.00
2023-03-17T05:19:18.886Z,92787.00
2023-03-17T05:20:18.862Z,92787.00
2023-03-17T05:22:18.832Z,92791.00
2023-03-17T05:23:18.823Z,92797.00
2023-03-17T05:24:18.810Z,92799.00
2023-03-17T05:25:18.790Z,92799.00
2023-03-17T05:26:18.878Z,92799.00
2023-03-17T05:27:18.817Z,92799.00
2023-03-17T05:28:18.830Z,92795.00
2023-03-17T05:30:18.813Z,92777.00
2023-03-17T05:31:18.794Z,92775.00
2023-03-17T05:32:18.761Z,92779.00
2023-03-17T05:33:18.735Z,92781.00
2023-03-17T05:35:18.712Z,92789.00
2023-03-17T05:36:18.703Z,92789.00
2023-03-17T05:37:18.672Z,92785.00
2023-03-17T05:38:18.648Z,92771.00
2023-03-17T05:39:19.143Z,92775.00
2023-03-17T05:40:18.625Z,92777.00
2023-03-17T05:41:18.612Z,92769.00
2023-03-17T05:42:18.598Z,92767.00
2023-03-17T05:52:18.430Z,92773.00
2023-03-17T05:53:18.419Z,92771.00
2023-03-17T05:54:18.435Z,92771.00
2023-03-17T05:55:18.434Z,92763.00
2023-03-17T05:56:18.463Z,92769.00
2023-03-17T05:57:18.486Z,92763.00
2023-03-17T05:58:18.498Z,92757.00
2023-03-17T05:59:18.561Z,92763.00
2023-03-17T06:00:18.545Z,92763.00
2023-03-17T06:01:18.548Z,92761.00
2023-03-17T06:02:18.634Z,92761.00
2023-03-17T06:03:18.672Z,92769.00
2023-03-17T06:04:18.608Z,92765.00
2023-03-17T06:05:18.690Z,92763.00
2023-03-17T06:06:18.636Z,92763.00
2023-03-17T06:07:18.642Z,92761.00
2023-03-17T06:08:18.654Z,92763.00
2023-03-17T06:09:18.692Z,92765.00
2023-03-17T06:10:18.712Z,92767.00
2023-03-17T06:11:18.704Z,92769.00
2023-03-17T06:12:18.726Z,92765.00
2023-03-17T06:13:18.728Z,92769.00
2023-03-17T06:14:18.795Z,92765.00
2023-03-17T06:15:18.755Z,92761.00
2023-03-17T06:16:18.884Z,92763.00
2023-03-17T06:17:18.787Z,92771.00
2023-03-17T06:18:18.768Z,92775.00
2023-03-17T06:19:18.812Z,92781.00
2023-03-17T06:20:18.808Z,92773.00
2023-03-17T06:21:18.913Z,92777.00
2023-03-17T06:22:18.881Z,92773.00
2023-03-17T06:23:18.940Z,92775.00
2023-03-17T06:24:18.981Z,92763.00
2023-03-17T06:25:18.955Z,92775.00
2023-03-17T06:26:18.975Z,92771.00
2023-03-17T06:27:18.985Z,92769.00
2023-03-17T06:28:19.590Z,92773.00
2023-03-17T06:29:19.050Z,92779.00
2023-03-17T06:30:19.082Z,92769.00
2023-03-17T06:31:19.200Z,92771.00
2023-03-17T06:32:20.882Z,92767.00
2023-03-17T06:33:19.156Z,92769.00
2023-03-17T06:34:19.163Z,92767.00
2023-03-17T06:35:19.291Z,92771.00
2023-03-17T06:36:19.254Z,92767.00
2023-03-17T06:37:19.329Z,92767.00
2023-03-17T06:38:19.352Z,92767.00
2023-03-17T06:39:19.425Z,92773.00
2023-03-17T06:40:19.449Z,92771.00
2023-03-17T06:41:19.489Z,92767.00
2023-03-17T06:42:19.537Z,92765.00
2023-03-17T06:43:19.564Z,92757.00
2023-03-17T06:44:19.684Z,92759.00
2023-03-17T06:45:19.662Z,92771.00
2023-03-17T06:46:19.726Z,92771.00
2023-03-17T06:47:19.718Z,92767.00
2023-03-17T06:48:19.752Z,92771.00
2023-03-17T06:49:19.768Z,92757.00
2023-03-17T06:50:20.594Z,92773.00
2023-03-17T06:51:19.811Z,92773.00
2023-03-17T06:52:19.842Z,92769.00
2023-03-17T06:53:19.844Z,92765.00
2023-03-17T06:54:19.887Z,92769.00
2023-03-17T06:55:19.890Z,92767.00
2023-03-17T06:56:29.565Z,92763.00
2023-03-17T06:58:19.890Z,92763.00
2023-03-17T06:59:19.892Z,92763.00
2023-03-17T07:00:19.873Z,92765.00
2023-03-17T07:01:19.904Z,92769.00
2023-03-17T07:02:19.863Z,92752.00
2023-03-17T07:03:19.840Z,92752.00
2023-03-17T07:04:19.860Z,92752.00
2023-03-17T07:05:19.826Z,92755.00
2023-03-17T07:06:19.832Z,92748.00
2023-03-17T07:07:19.844Z,92755.00
2023-03-17T07:08:19.822Z,92754.00
2023-03-17T07:09:19.790Z,92752.00
2023-03-17T07:10:21.517Z,92746.00
2023-03-17T07:11:21.597Z,92750.00
2023-03-17T07:12:19.766Z,92742.00
2023-03-17T07:13:19.758Z,92734.00
2023-03-17T07:14:19.778Z,92746.00
2023-03-17T07:15:19.783Z,92742.00
2023-03-17T07:16:19.809Z,92748.00
2023-03-17T07:17:19.803Z,92746.00
2023-03-17T07:18:19.786Z,92744.00
2023-03-17T07:19:19.811Z,92738.00
2023-03-17T07:20:19.811Z,92730.00
2023-03-17T07:21:19.862Z,92744.00
2023-03-17T07:22:20.183Z,92750.00
2023-03-17T07:23:19.866Z,92755.00
2023-03-17T07:24:19.891Z,92767.00
2023-03-17T07:25:20.463Z,92763.00
2023-03-17T07:26:20.635Z,92767.00
2023-03-17T07:27:22.763Z,92769.00
2023-03-17T07:28:19.901Z,92761.00
2023-03-17T07:29:19.880Z,92755.00
2023-03-17T07:30:19.862Z,92755.00
2023-03-17T07:31:19.965Z,92759.00
2023-03-17T07:32:19.884Z,92752.00
2023-03-17T07:33:19.833Z,92746.00
2023-03-17T07:34:19.867Z,92750.00
2023-03-17T07:35:19.862Z,92754.00
2023-03-17T07:36:19.797Z,92757.00
2023-03-17T07:37:19.798Z,92761.00
2023-03-17T07:38:19.773Z,92755.00
2023-03-17T07:39:19.727Z,92755.00
2023-03-17T07:41:19.693Z,92763.00
2023-03-17T07:42:19.726Z,92757.00
2023-03-17T07:43:19.762Z,92757.00
2023-03-17T07:44:19.650Z,92750.00
2023-03-17T07:45:19.611Z,92757.00
2023-03-17T07:46:19.672Z,92759.00
2023-03-17T07:47:19.572Z,92757.00
2023-03-17T07:48:19.546Z,92755.00
2023-03-17T07:49:33.991Z,92754.00
2023-03-17T07:50:20.537Z,92759.00
2023-03-17T07:51:19.471Z,92755.00
2023-03-17T07:52:19.432Z,92759.00
2023-03-17T07:53:19.421Z,92752.00
2023-03-17T07:54:20.193Z,92750.00
2023-03-17T07:55:19.381Z,92754.00
2023-03-17T07:56:19.318Z,92750.00
2023-03-17T07:57:19.347Z,92752.00
2023-03-17T07:58:19.278Z,92746.00
2023-03-17T07:59:19.265Z,92748.00
2023-03-17T08:00:19.288Z,92744.00
2023-03-17T08:01:19.300Z,92746.00
2023-03-17T08:02:19.443Z,92740.00
2023-03-17T08:03:19.590Z,92736.00
2023-03-17T08:04:19.409Z,92738.00
2023-03-17T08:05:20.214Z,92734.00
2023-03-17T08:06:19.461Z,92734.00
2023-03-17T08:07:21.114Z,92736.00
2023-03-17T08:08:19.530Z,92730.00
2023-03-17T08:09:19.537Z,92726.00
2023-03-17T08:10:21.219Z,92728.00
2023-03-17T08:11:19.648Z,92732.00
2023-03-17T08:12:19.653Z,92730.00
2023-03-17T08:13:19.722Z,92732.00
2023-03-17T08:14:20.201Z,92732.00
2023-03-17T08:15:19.706Z,92732.00
2023-03-17T08:16:19.772Z,92726.00
2023-03-17T08:17:19.788Z,92726.00
2023-03-17T08:18:19.813Z,92718.00
2023-03-17T08:19:19.852Z,92712.00
2023-03-17T08:20:19.829Z,92708.00
2023-03-17T08:21:19.919Z,92710.00
2023-03-17T08:22:20.691Z,92718.00
2023-03-17T08:23:19.891Z,92707.00
2023-03-17T08:24:21.612Z,92714.00
2023-03-17T08:25:20.692Z,92708.00
2023-03-17T08:26:20.031Z,92708.00
2023-03-17T08:27:20.001Z,92707.00
2023-03-17T08:28:20.048Z,92710.00
2023-03-17T08:29:20.063Z,92703.00
2023-03-17T08:30:20.088Z,92705.00
2023-03-17T08:31:20.225Z,92701.00
2023-03-17T08:32:20.156Z,92701.00
2023-03-17T08:33:20.304Z,92703.00
2023-03-17T08:34:21.188Z,92701.00
2023-03-17T08:35:20.280Z,92699.00
2023-03-17T08:36:20.279Z,92699.00
2023-03-17T08:37:20.303Z,92701.00
2023-03-17T08:38:20.326Z,92695.00
2023-03-17T08:39:20.360Z,92683.00
2023-03-17T08:40:20.397Z,92685.00
2023-03-17T08:41:20.427Z,92681.00
2023-03-17T08:42:20.429Z,92679.00
2023-03-17T08:43:20.455Z,92679.00
2023-03-17T08:44:20.474Z,92681.00
2023-03-17T08:45:21.206Z,92677.00
2023-03-17T08:46:20.598Z,92683.00
2023-03-17T08:47:20.626Z,92683.00
2023-03-17T08:48:20.622Z,92677.00
2023-03-17T08:49:20.666Z,92679.00
2023-03-17T08:50:20.642Z,92677.00
2023-03-17T08:51:24.141Z,92673.00
2023-03-17T08:52:20.640Z,92683.00
2023-03-17T08:53:20.636Z,92669.00
2023-03-17T08:54:20.578Z,92669.00
2023-03-17T08:55:20.560Z,92673.00
2023-03-17T08:56:20.629Z,92675.00
2023-03-17T08:57:20.497Z,92669.00
2023-03-17T08:58:21.471Z,92665.00
2023-03-17T08:59:20.442Z,92667.00
2023-03-17T09:00:20.493Z,92669.00
2023-03-17T09:01:20.433Z,92669.00
2023-03-17T09:02:20.444Z,92663.00
2023-03-17T09:03:20.343Z,92667.00
2023-03-17T09:04:20.313Z,92669.00
2023-03-17T09:05:20.322Z,92667.00
2023-03-17T09:06:20.261Z,92663.00
2023-03-17T09:07:20.234Z,92658.00
2023-03-17T09:08:20.224Z,92665.00
2023-03-17T09:09:20.205Z,92663.00
2023-03-17T09:10:20.391Z,92667.00
2023-03-17T09:11:20.281Z,92665.00
2023-03-17T09:12:20.301Z,92661.00
2023-03-17T09:14:20.389Z,92660.00
2023-03-17T09:15:20.320Z,92660.00
2023-03-17T09:16:20.296Z,92660.00
2023-03-17T09:17:21.207Z,92652.00
2023-03-17T09:18:22.114Z,92661.00
2023-03-17T09:19:20.180Z,92648.00
2023-03-17T09:20:20.161Z,92644.00
2023-03-17T09:21:20.125Z,92650.00
2023-03-17T09:22:20.223Z,92652.00
2023-03-17T09:23:20.134Z,92652.00
2023-03-17T09:24:20.066Z,92640.00
2023-03-17T09:25:20.032Z,92640.00
2023-03-17T09:26:20.060Z,92644.00
2023-03-17T09:27:20.030Z,92628.00
2023-03-17T09:28:20.069Z,92630.00
2023-03-17T09:29:20.082Z,92636.00
2023-03-17T09:30:20.127Z,92624.00
2023-03-17T09:31:20.783Z,92624.00
2023-03-17T09:32:20.143Z,92620.00
2023-03-17T09:33:20.638Z,92618.00
2023-03-17T09:34:20.217Z,92620.00
2023-03-17T09:35:20.179Z,92616.00
2023-03-17T09:36:20.216Z,92616.00
2023-03-17T09:37:20.189Z,92608.00
2023-03-17T09:38:20.180Z,92614.00
2023-03-17T09:39:20.192Z,92616.00
2023-03-17T09:40:20.204Z,92614.00
2023-03-17T09:41:20.214Z,92610.00
2023-03-17T09:42:21.214Z,92608.00
2023-03-17T09:43:20.230Z,92603.00
2023-03-17T09:44:20.749Z,92601.00
2023-03-17T09:45:20.335Z,92603.00
2023-03-17T09:46:20.337Z,92603.00
2023-03-17T09:47:20.275Z,92605.00
2023-03-17T09:48:20.272Z,92597.00
2023-03-17T09:49:21.224Z,92597.00
2023-03-17T09:50:20.286Z,92593.00
2023-03-17T09:51:20.396Z,92593.00
2023-03-17T09:52:20.285Z,92593.00
2023-03-17T09:53:20.292Z,92593.00
2023-03-17T09:54:20.288Z,92583.00
2023-03-17T09:55:20.287Z,92593.00
2023-03-17T09:56:20.291Z,92583.00
2023-03-17T09:57:20.298Z,92583.00
2023-03-17T09:58:20.296Z,92591.00
2023-03-17T09:59:20.282Z,92576.00
2023-03-17T10:00:20.276Z,92579.00
2023-03-17T10:01:20.288Z,92572.00
2023-03-17T10:02:20.253Z,92576.00
2023-03-17T10:03:20.723Z,92574.00
2023-03-17T10:04:20.250Z,92574.00
2023-03-17T10:05:20.263Z,92570.00
2023-03-17T10:06:20.218Z,92566.00
2023-03-17T10:07:20.204Z,92566.00
2023-03-17T10:08:30.596Z,92562.00
2023-03-17T10:09:21.165Z,92556.00
2023-03-17T10:10:20.138Z,92558.00
2023-03-17T10:11:20.099Z,92552.00
2023-03-17T10:12:20.076Z,92548.00
2023-03-17T10:13:20.032Z,92550.00
2023-03-17T10:14:19.996Z,92548.00
2023-03-17T10:15:19.975Z,92546.00
2023-03-17T10:16:20.000Z,92550.00
2023-03-17T10:17:20.231Z,92550.00
2023-03-17T10:18:19.863Z,92546.00
2023-03-17T10:19:19.903Z,92532.00
2023-03-17T10:20:19.862Z,92536.00
2023-03-17T10:21:19.772Z,92530.00
2023-03-17T10:22:19.822Z,92530.00
2023-03-17T10:23:20.230Z,92526.00
2023-03-17T10:24:19.672Z,92526.00
2023-03-17T10:25:19.758Z,92526.00
2023-03-17T10:26:19.615Z,92530.00
2023-03-17T10:27:21.341Z,92524.00
2023-03-17T10:28:19.577Z,92519.00
2023-03-17T10:29:20.233Z,92521.00
2023-03-17T10:30:21.318Z,92521.00
2023-03-17T10:31:20.279Z,92524.00
2023-03-17T10:32:20.152Z,92515.00
2023-03-17T10:33:19.604Z,92513.00
2023-03-17T10:34:19.548Z,92515.00
2023-03-17T10:35:19.556Z,92513.00
2023-03-17T10:36:20.260Z,92515.00
2023-03-17T10:37:19.545Z,92509.00
2023-03-17T10:38:19.531Z,92509.00
2023-03-17T10:39:20.198Z,92509.00
2023-03-17T10:40:22.858Z,92507.00
2023-03-17T10:41:20.234Z,92507.00
2023-03-17T10:42:21.248Z,92505.00
2023-03-17T10:43:20.158Z,92505.00
2023-03-17T10:44:19.364Z,92501.00
2023-03-17T10:45:19.334Z,92497.00
2023-03-17T10:46:19.353Z,92499.00
2023-03-17T10:47:19.292Z,92497.00
2023-03-17T10:48:19.218Z,92487.00
2023-03-17T10:49:19.742Z,92495.00
2023-03-17T10:50:19.209Z,92487.00
2023-03-17T10:51:19.105Z,92489.00
2023-03-17T10:52:19.248Z,92489.00
2023-03-17T10:53:19.026Z,92493.00
2023-03-17T10:54:18.987Z,92491.00
2023-03-17T10:55:20.777Z,92487.00
2023-03-17T10:56:19.931Z,92485.00
2023-03-17T10:57:18.889Z,92479.00
2023-03-17T10:58:18.871Z,92481.00
2023-03-17T10:59:18.877Z,92479.00
2023-03-17T11:00:18.851Z,92477.00
2023-03-17T11:01:18.770Z,92474.00
2023-03-17T11:02:18.728Z,92475.00
2023-03-17T11:03:18.696Z,92472.00
2023-03-17T11:04:18.723Z,92474.00
2023-03-17T11:05:18.618Z,92468.00
2023-03-17T11:06:18.585Z,92472.00
2023-03-17T11:07:18.569Z,92468.00
2023-03-17T11:08:18.502Z,92468.00
2023-03-17T11:09:18.509Z,92466.00
2023-03-17T11:10:18.557Z,92464.00
2023-03-17T11:11:18.512Z,92464.00
2023-03-17T11:12:18.347Z,92458.00
2023-03-17T11:13:18.345Z,92454.00
2023-03-17T11:14:18.279Z,92456.00
2023-03-17T11:15:18.278Z,92452.00
2023-03-17T11:16:18.251Z,92450.00
2023-03-17T11:17:18.186Z,92446.00
2023-03-17T11:18:18.745Z,92440.00
2023-03-17T11:19:18.099Z,92438.00
2023-03-17T11:20:18.084Z,92434.00
2023-03-17T11:21:18.047Z,92434.00
2023-03-17T11:22:17.986Z,92434.00
2023-03-17T11:41:18.261Z,92395.00
2023-03-17T13:18:18.276Z,92270.00
2023-03-17T13:22:18.276Z,92270.00
2023-03-17T14:11:18.306Z,92241.00
2023-03-17T14:39:18.374Z,92225.00
2023-03-17T14:53:18.309Z,92219.00
2023-03-17T15:06:18.314Z,92215.00
2023-03-17T19:13:17.998Z,92385.00
2023-03-17T19:14:18.008Z,92389.00
2023-03-17T19:25:18.398Z,92385.00
2023-03-17T19:44:17.982Z,92393.00
2023-03-17T19:45:18.889Z,92389.00
2023-03-17T19:47:17.992Z,92395.00
2023-03-17T19:48:18.007Z,92395.00
2023-03-17T19:49:18.053Z,92393.00
2023-03-17T19:50:18.051Z,92397.00
2023-03-17T19:51:18.069Z,92395.00
2023-03-17T19:52:18.078Z,92401.00
2023-03-17T19:53:18.110Z,92405.00
2023-03-17T19:54:18.116Z,92405.00
2023-03-17T19:55:18.132Z,92403.00
2023-03-17T19:56:18.142Z,92405.00
2023-03-17T19:57:18.177Z,92399.00
2023-03-17T19:58:18.200Z,92395.00
2023-03-17T19:59:18.218Z,92391.00
2023-03-17T20:00:18.232Z,92399.00
2023-03-17T20:01:18.271Z,92403.00
2023-03-17T20:02:18.268Z,92409.00
2023-03-17T20:03:18.294Z,92409.00
2023-03-17T20:04:18.354Z,92407.00
2023-03-17T20:05:18.331Z,92407.00
2023-03-17T20:06:18.359Z,92403.00
2023-03-17T20:07:18.380Z,92403.00
2023-03-17T20:08:18.376Z,92397.00
2023-03-17T20:09:18.386Z,92407.00
2023-03-17T20:10:18.411Z,92409.00
2023-03-17T20:11:18.433Z,92411.00
2023-03-17T20:12:18.448Z,92409.00
2023-03-17T20:13:19.406Z,92413.00
2023-03-17T20:14:18.493Z,92413.00
2023-03-17T20:15:18.508Z,92413.00
2023-03-17T20:16:18.610Z,92417.00
2023-03-17T20:17:18.530Z,92413.00
2023-03-17T20:18:18.556Z,92411.00
2023-03-17T20:19:18.588Z,92417.00
2023-03-17T20:20:18.586Z,92413.00
2023-03-17T20:21:19.402Z,92413.00
2023-03-17T20:22:18.628Z,92413.00
2023-03-17T20:23:18.635Z,92415.00
2023-03-17T20:24:18.642Z,92420.00
2023-03-17T20:25:18.659Z,92405.00
2023-03-17T20:26:18.753Z,92409.00
2023-03-17T20:27:18.699Z,92419.00
2023-03-17T20:28:18.713Z,92420.00
2023-03-17T20:29:18.787Z,92432.00
2023-03-17T20:30:18.742Z,92436.00
2023-03-17T20:31:18.841Z,92438.00
2023-03-17T20:32:18.795Z,92432.00
2023-03-17T20:33:18.803Z,92430.00
2023-03-17T20:34:18.795Z,92434.00
2023-03-17T20:35:18.813Z,92428.00
2023-03-17T20:36:18.824Z,92432.00
2023-03-17T20:37:18.845Z,92426.00
2023-03-17T20:38:18.852Z,92426.00
2023-03-17T20:39:18.865Z,92420.00
2023-03-17T20:40:18.872Z,92417.00
2023-03-17T20:41:18.898Z,92413.00
2023-03-17T20:42:20.559Z,92413.00
2023-03-17T20:43:18.931Z,92419.00
2023-03-17T20:44:19.906Z,92420.00
2023-03-17T21:23:19.586Z,92440.00
2023-03-17T21:24:19.596Z,92444.00
2023-03-17T21:25:19.625Z,92448.00
2023-03-17T21:26:19.644Z,92444.00
2023-03-17T21:28:19.657Z,92446.00
2023-03-17T21:29:19.674Z,92440.00
2023-03-17T21:30:19.773Z,92442.00
2023-03-17T21:32:19.701Z,92448.00
2023-03-17T21:33:19.714Z,92444.00
2023-03-17T21:35:19.760Z,92430.00
2023-03-17T21:36:19.761Z,92444.00
2023-03-17T21:37:19.763Z,92442.00
2023-03-17T21:38:19.774Z,92444.00
2023-03-17T21:39:19.787Z,92462.00
2023-03-17T21:40:19.816Z,92442.00
2023-03-17T21:41:19.819Z,92446.00
2023-03-17T21:42:19.836Z,92442.00
2023-03-17T21:43:19.870Z,92444.00
2023-03-17T21:44:19.882Z,92448.00
2023-03-17T21:45:19.885Z,92450.00
2023-03-17T21:46:19.892Z,92444.00
2023-03-17T21:47:19.978Z,92456.00
2023-03-17T21:48:19.921Z,92448.00
2023-03-17T21:49:19.945Z,92446.00
2023-03-17T21:50:19.962Z,92442.00
2023-03-17T21:51:19.981Z,92448.00
2023-03-17T21:52:20.056Z,92456.00
2023-03-17T21:53:20.059Z,92442.00
2023-03-17T21:54:20.027Z,92444.00
2023-03-17T21:55:20.032Z,92448.00
2023-03-17T21:56:20.052Z,92452.00
2023-03-17T21:57:20.091Z,92444.00
2023-03-17T21:58:20.085Z,92448.00
2023-03-17T22:10:20.237Z,92472.00
2023-03-17T22:11:20.227Z,92472.00
2023-03-17T22:12:20.288Z,92475.00
2023-03-17T22:13:20.246Z,92475.00
2023-03-17T22:14:20.248Z,92472.00
2023-03-17T22:15:20.262Z,92481.00
2023-03-17T22:16:20.309Z,92485.00
2023-03-17T22:17:20.933Z,92489.00
2023-03-17T22:18:20.319Z,92481.00
2023-03-17T22:19:21.385Z,92483.00
2023-03-17T22:20:20.322Z,92481.00
2023-03-17T22:21:20.353Z,92483.00
2023-03-17T22:22:20.354Z,92477.00
2023-03-17T22:23:20.354Z,92479.00
2023-03-17T22:24:20.359Z,92472.00
2023-03-17T22:25:23.192Z,92479.00
2023-03-17T22:26:20.352Z,92481.00
2023-03-17T22:27:20.320Z,92483.00
2023-03-17T22:28:20.286Z,92481.00
2023-03-17T22:29:20.270Z,92481.00
2023-03-17T22:30:20.219Z,92487.00
2023-03-17T22:31:20.267Z,92481.00
2023-03-17T22:32:20.163Z,92475.00
2023-03-17T22:33:20.138Z,92479.00
2023-03-17T22:34:20.108Z,92477.00
2023-03-17T22:35:20.072Z,92483.00
2023-03-17T22:36:20.034Z,92483.00
2023-03-17T22:37:20.011Z,92483.00
2023-03-17T22:38:19.981Z,92481.00
2023-03-17T22:39:19.941Z,92487.00
2023-03-17T22:40:19.922Z,92483.00
2023-03-17T22:41:19.908Z,92487.00
2023-03-17T22:42:19.849Z,92487.00
2023-03-17T22:43:19.820Z,92489.00
2023-03-17T22:44:19.792Z,92487.00
2023-03-17T22:45:19.765Z,92487.00
2023-03-17T22:46:19.873Z,92485.00
2023-03-17T22:47:19.707Z,92483.00
2023-03-17T22:48:19.669Z,92483.00
2023-03-17T22:49:19.639Z,92483.00
2023-03-17T22:50:19.591Z,92485.00
2023-03-17T22:51:19.628Z,92485.00
2023-03-17T22:52:19.537Z,92487.00
2023-03-17T22:53:19.510Z,92489.00
2023-03-17T22:54:19.466Z,92489.00
2023-03-17T22:55:19.431Z,92489.00
2023-03-17T22:56:19.399Z,92493.00
2023-03-17T22:57:19.362Z,92495.00
2023-03-17T22:58:19.332Z,92501.00
2023-03-17T22:59:19.298Z,92501.00
2023-03-17T23:00:19.263Z,92501.00
2023-03-17T23:01:19.285Z,92495.00
2023-03-17T23:02:19.212Z,92495.00
2023-03-17T23:03:19.157Z,92499.00
2023-03-17T23:04:19.131Z,92493.00
2023-03-17T23:05:19.102Z,92491.00
2023-03-17T23:06:19.055Z,92497.00
2023-03-17T23:07:19.032Z,92497.00
2023-03-17T23:08:19.958Z,92501.00
2023-03-17T23:09:18.956Z,92503.00
2023-03-17T23:10:18.927Z,92501.00
2023-03-17T23:11:18.896Z,92499.00
2023-03-17T23:12:18.869Z,92501.00
2023-03-17T23:13:18.958Z,92501.00
2023-03-17T23:14:18.794Z,92501.00
2023-03-17T23:15:18.828Z,92499.00
2023-03-17T23:16:18.757Z,92497.00
2023-03-17T23:17:18.691Z,92497.00
2023-03-17T23:18:18.655Z,92501.00